createdAt,value
2022-12-23T00:01:27.009Z,13.30
2022-12-23T00:06:29.171Z,13.30
2022-12-23T00:11:31.526Z,13.30
2022-12-23T00:16:37.057Z,13.40
2022-12-23T00:21:39.264Z,13.40
2022-12-23T00:26:41.410Z,13.40
2022-12-23T00:31:43.628Z,13.50
2022-12-23T00:36:45.782Z,13.40
2022-12-23T00:42:06.348Z,13.50
2022-12-23T00:47:28.485Z,13.50
2022-12-23T00:52:30.722Z,13.50
2022-12-23T00:57:32.811Z,13.50
2022-12-23T01:02:53.771Z,13.50
2022-12-23T01:07:56.183Z,13.40
2022-12-23T01:12:59.480Z,13.40
2022-12-23T01:18:01.506Z,13.40
2022-12-23T01:23:03.562Z,13.40
2022-12-23T01:28:05.662Z,13.40
2022-12-23T01:33:07.700Z,13.40
2022-12-23T01:38:09.755Z,13.40
2022-12-23T01:43:19.478Z,13.40
2022-12-23T01:48:27.209Z,13.50
2022-12-23T01:53:33.178Z,13.50
2022-12-23T01:58:37.888Z,13.50
2022-12-23T02:03:43.285Z,13.50
2022-12-23T02:09:04.209Z,13.50
2022-12-23T02:14:54.291Z,13.60
2022-12-23T02:20:11.220Z,13.60
2022-12-23T02:25:41.063Z,13.60
2022-12-23T02:30:46.178Z,13.60
2022-12-23T02:35:59.955Z,13.60
2022-12-23T02:41:24.763Z,13.50
2022-12-23T02:46:47.443Z,13.50
2022-12-23T02:51:55.120Z,13.50
2022-12-23T02:57:00.205Z,13.50
2022-12-23T03:02:02.356Z,13.60
2022-12-23T03:07:08.060Z,13.60
2022-12-23T03:12:43.253Z,13.60
2022-12-23T03:18:06.530Z,13.60
2022-12-23T03:23:18.735Z,13.60
2022-12-23T03:28:52.513Z,13.60
2022-12-23T03:34:00.611Z,13.60
2022-12-23T03:39:06.944Z,13.60
2022-12-23T03:44:18.227Z,13.60
2022-12-23T03:49:27.416Z,13.60
2022-12-23T03:54:42.748Z,13.60
2022-12-23T03:59:47.593Z,13.60
2022-12-23T04:05:24.272Z,13.60
2022-12-23T04:10:27.649Z,13.60
2022-12-23T04:15:30.374Z,13.70
2022-12-23T04:20:32.519Z,13.80
2022-12-23T04:25:34.711Z,13.80
2022-12-23T04:30:36.827Z,13.80
2022-12-23T04:35:38.987Z,13.90
2022-12-23T04:40:44.987Z,13.90
2022-12-23T04:45:51.365Z,13.80
2022-12-23T04:50:53.446Z,13.80
2022-12-23T04:55:55.641Z,13.80
2022-12-23T05:01:05.937Z,13.70
2022-12-23T05:06:08.597Z,13.70
2022-12-23T05:11:10.687Z,13.70
2022-12-23T05:16:12.873Z,13.70
2022-12-23T05:21:15.691Z,13.70
2022-12-23T05:26:17.943Z,13.70
2022-12-23T05:31:20.183Z,13.70
2022-12-23T05:36:22.350Z,13.70
2022-12-23T05:41:24.664Z,13.70
2022-12-23T05:46:27.482Z,13.70
2022-12-23T05:51:29.861Z,13.80
2022-12-23T05:56:32.035Z,13.80
2022-12-23T06:01:34.223Z,13.80
2022-12-23T06:06:36.476Z,13.80
2022-12-23T06:11:38.655Z,13.80
2022-12-23T06:16:40.888Z,13.70
2022-12-23T06:21:43.073Z,13.70
2022-12-23T06:26:45.163Z,13.60
2022-12-23T06:31:47.701Z,13.70
2022-12-23T06:36:49.884Z,13.70
2022-12-23T06:41:52.012Z,13.70
2022-12-23T06:46:54.248Z,13.80
2022-12-23T06:51:56.367Z,13.80
2022-12-23T06:56:58.505Z,13.80
2022-12-23T07:02:00.796Z,13.80
2022-12-23T07:07:03.168Z,13.90
2022-12-23T07:12:05.673Z,13.90
2022-12-23T07:17:08.005Z,13.90
2022-12-23T07:22:10.419Z,13.90
2022-12-23T07:27:12.645Z,13.90
2022-12-23T07:32:14.802Z,13.90
2022-12-23T07:37:16.930Z,13.90
2022-12-23T07:42:44.807Z,13.80
2022-12-23T07:47:41.660Z,13.80
2022-12-23T07:52:43.745Z,13.70
2022-12-23T07:57:52.844Z,13.70
2022-12-23T08:02:55.076Z,13.70
2022-12-23T08:07:57.258Z,13.70
2022-12-23T08:13:02.537Z,13.70
2022-12-23T08:18:04.723Z,13.60
2022-12-23T08:23:06.836Z,13.60
2022-12-23T08:28:08.962Z,13.60
2022-12-23T08:33:11.097Z,13.60
2022-12-23T08:38:13.246Z,13.60
2022-12-23T08:43:15.348Z,13.60
2022-12-23T08:48:17.799Z,13.60
2022-12-23T08:53:19.938Z,13.60
2022-12-23T08:58:22.076Z,13.50
2022-12-23T09:03:24.288Z,13.50
2022-12-23T09:08:26.510Z,13.50
2022-12-23T09:13:35.101Z,13.50
2022-12-23T09:18:38.083Z,13.50
2022-12-23T09:23:40.619Z,13.50
2022-12-23T09:28:42.674Z,13.40
2022-12-23T09:33:48.196Z,13.40
2022-12-23T09:38:58.150Z,13.50
2022-12-23T09:44:38.011Z,13.40
2022-12-23T09:49:50.511Z,13.40
2022-12-23T09:54:54.982Z,13.50
2022-12-23T09:59:59.975Z,13.50
2022-12-23T10:05:25.264Z,13.50
2022-12-23T10:10:56.702Z,13.60
2022-12-23T10:16:05.016Z,13.60
2022-12-23T10:21:31.464Z,13.60
2022-12-23T10:26:46.852Z,13.70
2022-12-23T10:32:22.888Z,13.70
2022-12-23T10:37:31.265Z,13.70
2022-12-23T10:42:40.185Z,13.70
2022-12-23T10:48:14.798Z,13.70
2022-12-23T10:53:37.416Z,13.70
2022-12-23T10:58:44.582Z,13.70
2022-12-23T11:03:56.182Z,13.70
2022-12-23T11:09:00.737Z,13.60
2022-12-23T11:14:02.929Z,13.60
2022-12-23T11:19:13.993Z,13.60
2022-12-23T11:24:22.209Z,13.60
2022-12-23T11:29:31.594Z,13.60
2022-12-23T11:34:37.939Z,13.60
2022-12-23T11:39:46.189Z,13.60
2022-12-23T11:44:52.119Z,13.50
2022-12-23T11:49:56.955Z,13.60
2022-12-23T11:55:04.794Z,13.60
2022-12-23T12:00:18.659Z,13.60
2022-12-23T12:05:40.553Z,13.70
2022-12-23T12:10:43.678Z,13.70
2022-12-23T12:15:52.663Z,13.60
2022-12-23T12:21:00.813Z,13.60
2022-12-23T12:26:13.421Z,13.60
2022-12-23T12:31:32.113Z,13.60
2022-12-23T12:36:55.901Z,13.60
2022-12-23T12:42:06.058Z,13.60
2022-12-23T12:47:57.005Z,13.50
2022-12-23T12:53:15.674Z,13.50
2022-12-23T12:58:22.796Z,13.40
2022-12-23T13:03:40.195Z,13.40
2022-12-23T13:08:53.735Z,13.50
2022-12-23T13:14:00.584Z,13.60
2022-12-23T13:19:17.901Z,13.70
2022-12-23T13:24:26.145Z,13.80
2022-12-23T13:29:53.106Z,13.90
2022-12-23T13:35:22.594Z,13.90
2022-12-23T13:40:36.649Z,13.90
2022-12-23T13:45:41.689Z,13.90
2022-12-23T13:50:55.185Z,13.70
2022-12-23T13:56:19.196Z,13.50
2022-12-23T14:01:33.670Z,13.40
2022-12-23T14:06:36.748Z,13.40
2022-12-23T14:11:38.905Z,13.30
2022-12-23T14:16:59.787Z,13.30
2022-12-23T14:22:28.250Z,13.20
2022-12-23T14:27:38.968Z,13.10
2022-12-23T14:32:57.200Z,13.10
2022-12-23T14:38:15.974Z,13.10
2022-12-23T14:43:26.632Z,13.00
2022-12-23T14:48:34.767Z,13.00
2022-12-23T14:53:52.458Z,12.80
2022-12-23T14:58:59.845Z,12.90
2022-12-23T15:04:09.152Z,12.90
2022-12-23T15:09:22.084Z,12.80
2022-12-23T15:14:38.615Z,12.80
2022-12-23T15:19:45.886Z,12.80
2022-12-23T15:24:48.194Z,12.80
2022-12-23T15:29:52.787Z,12.70
2022-12-23T15:35:05.164Z,12.60
2022-12-23T15:40:22.360Z,12.60
2022-12-23T15:45:30.527Z,12.60
2022-12-23T15:50:41.644Z,12.50
2022-12-23T15:55:44.782Z,12.40
2022-12-23T16:00:57.581Z,12.40
2022-12-23T16:06:21.737Z,12.40
2022-12-23T16:11:24.631Z,12.30
2022-12-23T16:16:43.563Z,12.30
2022-12-23T16:21:45.709Z,12.30
2022-12-23T16:26:47.867Z,12.20
2022-12-23T16:31:57.442Z,12.30
2022-12-23T16:37:03.285Z,12.30
2022-12-23T16:42:05.509Z,12.30
2022-12-23T16:47:15.002Z,12.30
2022-12-23T16:52:17.191Z,12.30
2022-12-23T16:57:19.270Z,12.30
2022-12-23T17:02:25.008Z,12.30
2022-12-23T17:07:27.517Z,12.30
2022-12-23T17:12:29.667Z,12.30
2022-12-23T17:17:31.869Z,12.30
2022-12-23T17:22:35.711Z,12.20
2022-12-23T17:27:37.804Z,12.20
2022-12-23T17:32:40.029Z,12.20
2022-12-23T17:37:42.178Z,12.20
2022-12-23T17:42:45.155Z,12.20
2022-12-23T17:47:47.399Z,12.20
2022-12-23T17:52:50.707Z,12.20
2022-12-23T17:57:53.232Z,12.20
2022-12-23T18:02:55.391Z,12.20
2022-12-23T18:07:58.770Z,12.20
2022-12-23T18:13:03.187Z,12.30
2022-12-23T18:18:27.514Z,12.30
2022-12-23T18:23:34.587Z,12.30
2022-12-23T18:28:36.784Z,12.20
2022-12-23T18:33:38.826Z,12.20
2022-12-23T18:38:40.879Z,12.20
2022-12-23T18:43:43.030Z,12.20
2022-12-23T18:48:45.320Z,12.20
2022-12-23T18:53:48.743Z,12.20
2022-12-23T18:58:50.838Z,12.20
2022-12-23T19:03:52.904Z,12.20
2022-12-23T19:08:54.980Z,12.20
2022-12-23T19:13:57.391Z,12.20
2022-12-23T19:18:59.576Z,12.20
2022-12-23T19:24:02.559Z,12.20
2022-12-23T19:29:04.765Z,12.20
2022-12-23T19:34:12.712Z,12.20
2022-12-23T19:39:18.288Z,12.20
2022-12-23T19:44:20.537Z,12.10
2022-12-23T19:49:22.790Z,12.10
2022-12-23T19:54:24.883Z,12.00
2022-12-23T19:59:27.078Z,12.10
2022-12-23T20:04:29.236Z,12.10
2022-12-23T20:09:31.295Z,12.10
2022-12-23T20:14:34.354Z,12.10
2022-12-23T20:19:42.082Z,12.10
2022-12-23T20:24:48.041Z,12.10
2022-12-23T20:29:50.152Z,12.10
2022-12-23T20:34:52.262Z,12.10
2022-12-23T20:39:54.411Z,12.10
2022-12-23T20:44:56.538Z,12.10
2022-12-23T20:49:58.747Z,12.10
2022-12-23T20:55:01.741Z,12.10
2022-12-23T21:00:07.639Z,12.10
2022-12-23T21:05:09.714Z,12.10
2022-12-23T21:10:11.908Z,12.10
2022-12-23T21:15:14.099Z,12.10
2022-12-23T21:20:16.273Z,12.20
2022-12-23T21:25:18.385Z,12.20
2022-12-23T21:30:20.491Z,12.20
2022-12-23T21:35:22.604Z,12.20
2022-12-23T21:40:24.691Z,12.20
2022-12-23T21:45:26.879Z,12.20
2022-12-23T21:50:29.838Z,12.20
2022-12-23T21:55:32.001Z,12.20
2022-12-23T22:00:34.166Z,12.20
2022-12-23T22:05:36.390Z,12.10
2022-12-23T22:10:39.828Z,12.10
2022-12-23T22:15:42.981Z,12.20
2022-12-23T22:20:46.528Z,12.10
2022-12-23T22:25:55.641Z,12.10
2022-12-23T22:31:05.769Z,12.00
2022-12-23T22:36:10.519Z,12.00
2022-12-23T22:41:12.718Z,11.90
2022-12-23T22:46:15.217Z,11.90
2022-12-23T22:51:20.844Z,11.90
2022-12-23T22:56:24.258Z,11.90
2022-12-23T23:01:29.505Z,11.90
2022-12-23T23:06:40.156Z,11.90
2022-12-23T23:11:43.302Z,11.90
2022-12-23T23:16:45.512Z,11.90
2022-12-23T23:21:48.867Z,11.80
2022-12-23T23:26:50.984Z,11.80
2022-12-23T23:31:53.084Z,11.80
2022-12-23T23:36:55.349Z,11.80
2022-12-23T23:41:57.480Z,11.70
2022-12-23T23:46:59.614Z,11.60
2022-12-23T23:52:01.711Z,11.60
2022-12-23T23:57:03.841Z,11.50
